sensor_id;sensor_type;location;lat;lon;timestamp;temperature;humidity
47857;DHT22;33618;49.972;8.242;2022-11-15T00:00:56;7.90;99.90
47857;DHT22;33618;49.972;8.242;2022-11-15T00:03:25;8.00;99.90
47857;DHT22;33618;49.972;8.242;2022-11-15T00:05:53;7.90;99.90
47857;DHT22;33618;49.972;8.242;2022-11-15T00:08:20;8.00;99.90
47857;DHT22;33618;49.972;8.242;2022-11-15T00:10:54;8.00;99.90
47857;DHT22;33618;49.972;8.242;2022-11-15T00:13:22;8.00;99.90
47857;DHT22;33618;49.972;8.242;2022-11-15T00:15:49;8.00;99.90
47857;DHT22;33618;49.972;8.242;2022-11-15T00:18:16;8.10;99.90
47857;DHT22;33618;49.972;8.242;2022-11-15T00:20:43;8.20;99.90
47857;DHT22;33618;49.972;8.242;2022-11-15T00:23:10;8.10;99.90
47857;DHT22;33618;49.972;8.242;2022-11-15T00:25:38;8.20;99.90
47857;DHT22;33618;49.972;8.242;2022-11-15T00:28:05;8.20;99.90
47857;DHT22;33618;49.972;8.242;2022-11-15T00:30:34;8.30;99.90
47857;DHT22;33618;49.972;8.242;2022-11-15T00:33:05;8.30;99.90
47857;DHT22;33618;49.972;8.242;2022-11-15T00:35:42;8.30;99.90
47857;DHT22;33618;49.972;8.242;2022-11-15T00:38:10;8.30;99.90
47857;DHT22;33618;49.972;8.242;2022-11-15T00:40:39;8.30;99.90
47857;DHT22;33618;49.972;8.242;2022-11-15T00:43:10;8.40;99.90
47857;DHT22;33618;49.972;8.242;2022-11-15T00:45:39;8.30;99.90
47857;DHT22;33618;49.972;8.242;2022-11-15T00:48:09;8.30;99.90
47857;DHT22;33618;49.972;8.242;2022-11-15T00:50:37;8.30;99.90
47857;DHT22;33618;49.972;8.242;2022-11-15T00:53:04;8.30;99.90
47857;DHT22;33618;49.972;8.242;2022-11-15T00:55:31;8.40;99.90
47857;DHT22;33618;49.972;8.242;2022-11-15T00:57:58;8.30;99.90
47857;DHT22;33618;49.972;8.242;2022-11-15T01:00:25;8.30;99.90
47857;DHT22;33618;49.972;8.242;2022-11-15T01:02:52;8.30;99.90
47857;DHT22;33618;49.972;8.242;2022-11-15T01:05:21;8.30;99.90
47857;DHT22;33618;49.972;8.242;2022-11-15T01:07:53;8.30;99.90
47857;DHT22;33618;49.972;8.242;2022-11-15T01:10:23;8.30;99.90
47857;DHT22;33618;49.972;8.242;2022-11-15T01:12:52;8.30;99.90
47857;DHT22;33618;49.972;8.242;2022-11-15T01:15:19;8.30;99.90
47857;DHT22;33618;49.972;8.242;2022-11-15T01:17:45;8.30;99.90
47857;DHT22;33618;49.972;8.242;2022-11-15T01:20:12;8.30;99.90
47857;DHT22;33618;49.972;8.242;2022-11-15T01:22:39;8.30;99.90
47857;DHT22;33618;49.972;8.242;2022-11-15T01:25:06;8.30;99.90
47857;DHT22;33618;49.972;8.242;2022-11-15T01:27:33;8.20;99.90
47857;DHT22;33618;49.972;8.242;2022-11-15T01:29:59;8.30;99.90
47857;DHT22;33618;49.972;8.242;2022-11-15T01:32:26;8.30;99.90
47857;DHT22;33618;49.972;8.242;2022-11-15T01:34:53;8.30;99.90
47857;DHT22;33618;49.972;8.242;2022-11-15T01:37:20;8.30;99.90
47857;DHT22;33618;49.972;8.242;2022-11-15T01:39:47;8.30;99.90
47857;DHT22;33618;49.972;8.242;2022-11-15T01:42:14;8.30;99.90
47857;DHT22;33618;49.972;8.242;2022-11-15T01:44:48;8.40;99.90
47857;DHT22;33618;49.972;8.242;2022-11-15T01:47:29;8.40;99.90
47857;DHT22;33618;49.972;8.242;2022-11-15T01:50:04;8.40;99.90
47857;DHT22;33618;49.972;8.242;2022-11-15T01:52:33;8.40;99.90
47857;DHT22;33618;49.972;8.242;2022-11-15T01:55:20;8.30;99.90
47857;DHT22;33618;49.972;8.242;2022-11-15T01:57:49;8.30;99.90
47857;DHT22;33618;49.972;8.242;2022-11-15T02:00:17;8.40;99.90
47857;DHT22;33618;49.972;8.242;2022-11-15T02:02:45;8.40;99.90
47857;DHT22;33618;49.972;8.242;2022-11-15T02:05:12;8.40;99.90
47857;DHT22;33618;49.972;8.242;2022-11-15T02:07:39;8.30;99.90
47857;DHT22;33618;49.972;8.242;2022-11-15T02:10:09;8.30;99.90
47857;DHT22;33618;49.972;8.242;2022-11-15T02:12:36;8.40;99.90
47857;DHT22;33618;49.972;8.242;2022-11-15T02:15:05;8.30;99.90
47857;DHT22;33618;49.972;8.242;2022-11-15T02:17:54;8.30;99.90
47857;DHT22;33618;49.972;8.242;2022-11-15T02:20:41;8.20;99.90
47857;DHT22;33618;49.972;8.242;2022-11-15T02:26:08;8.20;99.90
47857;DHT22;33618;49.972;8.242;2022-11-15T02:34:35;8.20;99.90
47857;DHT22;33618;49.972;8.242;2022-11-15T02:42:41;8.30;99.90
47857;DHT22;33618;49.972;8.242;2022-11-15T02:45:48;8.30;99.90
47857;DHT22;33618;49.972;8.242;2022-11-15T02:48:17;8.30;99.90
47857;DHT22;33618;49.972;8.242;2022-11-15T02:50:46;8.30;99.90
47857;DHT22;33618;49.972;8.242;2022-11-15T02:53:14;8.30;99.90
47857;DHT22;33618;49.972;8.242;2022-11-15T02:55:44;8.20;99.90
47857;DHT22;33618;49.972;8.242;2022-11-15T03:12:16;7.90;99.90
47857;DHT22;33618;49.972;8.242;2022-11-15T03:15:01;7.90;99.90
47857;DHT22;33618;49.972;8.242;2022-11-15T03:17:43;7.90;99.90
47857;DHT22;33618;49.972;8.242;2022-11-15T03:20:14;8.00;99.90
47857;DHT22;33618;49.972;8.242;2022-11-15T03:22:44;8.00;99.90
47857;DHT22;33618;49.972;8.242;2022-11-15T03:25:22;8.10;99.90
47857;DHT22;33618;49.972;8.242;2022-11-15T03:27:52;8.20;99.90
47857;DHT22;33618;49.972;8.242;2022-11-15T03:30:20;8.20;99.90
47857;DHT22;33618;49.972;8.242;2022-11-15T03:32:53;8.20;99.90
47857;DHT22;33618;49.972;8.242;2022-11-15T03:35:23;8.10;99.90
47857;DHT22;33618;49.972;8.242;2022-11-15T03:40:35;8.10;99.90
47857;DHT22;33618;49.972;8.242;2022-11-15T03:46:16;8.10;99.90
47857;DHT22;33618;49.972;8.242;2022-11-15T03:48:53;8.00;99.90
47857;DHT22;33618;49.972;8.242;2022-11-15T03:51:21;8.20;99.90
47857;DHT22;33618;49.972;8.242;2022-11-15T03:53:48;8.20;99.90
47857;DHT22;33618;49.972;8.242;2022-11-15T03:56:15;8.30;99.90
47857;DHT22;33618;49.972;8.242;2022-11-15T03:58:42;8.30;99.90
47857;DHT22;33618;49.972;8.242;2022-11-15T04:01:09;8.40;99.90
47857;DHT22;33618;49.972;8.242;2022-11-15T04:03:36;8.50;99.90
47857;DHT22;33618;49.972;8.242;2022-11-15T04:06:03;8.50;99.90
47857;DHT22;33618;49.972;8.242;2022-11-15T04:08:30;8.60;99.90
47857;DHT22;33618;49.972;8.242;2022-11-15T04:10:57;8.70;99.90
47857;DHT22;33618;49.972;8.242;2022-11-15T04:13:24;8.80;99.90
47857;DHT22;33618;49.972;8.242;2022-11-15T04:15:51;8.80;99.90
47857;DHT22;33618;49.972;8.242;2022-11-15T04:18:18;9.00;99.90
47857;DHT22;33618;49.972;8.242;2022-11-15T04:20:45;9.00;99.90
47857;DHT22;33618;49.972;8.242;2022-11-15T04:23:31;9.20;99.90
47857;DHT22;33618;49.972;8.242;2022-11-15T04:26:18;9.40;99.90
47857;DHT22;33618;49.972;8.242;2022-11-15T04:28:46;9.50;99.90
47857;DHT22;33618;49.972;8.242;2022-11-15T04:31:32;9.60;99.90
47857;DHT22;33618;49.972;8.242;2022-11-15T04:33:59;9.70;99.90
47857;DHT22;33618;49.972;8.242;2022-11-15T04:36:26;9.80;99.90
47857;DHT22;33618;49.972;8.242;2022-11-15T04:39:12;9.80;99.90
47857;DHT22;33618;49.972;8.242;2022-11-15T04:41:38;9.80;99.90
47857;DHT22;33618;49.972;8.242;2022-11-15T04:44:05;9.70;99.90
47857;DHT22;33618;49.972;8.242;2022-11-15T04:46:32;9.70;99.90
47857;DHT22;33618;49.972;8.242;2022-11-15T04:48:59;9.70;99.90
47857;DHT22;33618;49.972;8.242;2022-11-15T04:51:26;9.60;99.90
47857;DHT22;33618;49.972;8.242;2022-11-15T04:53:53;9.70;99.90
47857;DHT22;33618;49.972;8.242;2022-11-15T04:56:20;9.70;99.90
47857;DHT22;33618;49.972;8.242;2022-11-15T04:58:50;9.80;99.90
47857;DHT22;33618;49.972;8.242;2022-11-15T05:01:17;9.80;99.90
47857;DHT22;33618;49.972;8.242;2022-11-15T05:03:44;9.90;99.90
47857;DHT22;33618;49.972;8.242;2022-11-15T05:06:30;9.90;99.90
47857;DHT22;33618;49.972;8.242;2022-11-15T05:08:57;9.90;99.90
47857;DHT22;33618;49.972;8.242;2022-11-15T05:11:24;9.80;99.90
47857;DHT22;33618;49.972;8.242;2022-11-15T05:13:51;9.80;99.90
47857;DHT22;33618;49.972;8.242;2022-11-15T05:16:18;9.70;99.90
47857;DHT22;33618;49.972;8.242;2022-11-15T05:18:45;9.70;99.90
47857;DHT22;33618;49.972;8.242;2022-11-15T05:21:14;9.80;99.90
47857;DHT22;33618;49.972;8.242;2022-11-15T05:23:41;9.80;99.90
47857;DHT22;33618;49.972;8.242;2022-11-15T05:26:09;9.80;99.90
47857;DHT22;33618;49.972;8.242;2022-11-15T05:28:36;9.80;99.90
47857;DHT22;33618;49.972;8.242;2022-11-15T05:31:05;9.90;99.90
47857;DHT22;33618;49.972;8.242;2022-11-15T05:33:33;9.90;99.90
47857;DHT22;33618;49.972;8.242;2022-11-15T05:36:12;9.90;99.90
47857;DHT22;33618;49.972;8.242;2022-11-15T05:38:40;9.80;99.90
47857;DHT22;33618;49.972;8.242;2022-11-15T05:41:07;9.80;99.90
47857;DHT22;33618;49.972;8.242;2022-11-15T05:43:36;9.90;99.90
47857;DHT22;33618;49.972;8.242;2022-11-15T05:46:04;10.00;99.90
47857;DHT22;33618;49.972;8.242;2022-11-15T05:48:33;10.00;99.90
47857;DHT22;33618;49.972;8.242;2022-11-15T05:51:01;10.10;99.90
47857;DHT22;33618;49.972;8.242;2022-11-15T05:53:30;10.10;99.90
47857;DHT22;33618;49.972;8.242;2022-11-15T05:55:57;10.20;99.90
47857;DHT22;33618;49.972;8.242;2022-11-15T05:58:24;10.20;99.90
47857;DHT22;33618;49.972;8.242;2022-11-15T06:00:51;10.30;99.90
47857;DHT22;33618;49.972;8.242;2022-11-15T06:03:19;10.30;99.90
47857;DHT22;33618;49.972;8.242;2022-11-15T06:05:45;10.30;99.90
47857;DHT22;33618;49.972;8.242;2022-11-15T06:08:12;10.30;99.90
47857;DHT22;33618;49.972;8.242;2022-11-15T06:10:39;10.30;99.90
47857;DHT22;33618;49.972;8.242;2022-11-15T06:13:06;10.30;99.90
47857;DHT22;33618;49.972;8.242;2022-11-15T06:15:34;10.30;99.90
47857;DHT22;33618;49.972;8.242;2022-11-15T06:18:01;10.30;99.90
47857;DHT22;33618;49.972;8.242;2022-11-15T06:20:29;10.20;99.90
47857;DHT22;33618;49.972;8.242;2022-11-15T06:23:04;10.00;99.90
47857;DHT22;33618;49.972;8.242;2022-11-15T06:25:31;9.90;99.90
47857;DHT22;33618;49.972;8.242;2022-11-15T06:27:59;9.90;99.90
47857;DHT22;33618;49.972;8.242;2022-11-15T06:30:27;9.80;99.90
47857;DHT22;33618;49.972;8.242;2022-11-15T06:33:02;9.80;99.90
47857;DHT22;33618;49.972;8.242;2022-11-15T06:35:30;9.80;99.90
47857;DHT22;33618;49.972;8.242;2022-11-15T06:38:03;9.80;99.90
47857;DHT22;33618;49.972;8.242;2022-11-15T06:40:30;9.80;99.90
47857;DHT22;33618;49.972;8.242;2022-11-15T06:42:59;9.80;99.90
47857;DHT22;33618;49.972;8.242;2022-11-15T06:45:27;9.80;99.90
47857;DHT22;33618;49.972;8.242;2022-11-15T06:47:54;9.80;99.90
47857;DHT22;33618;49.972;8.242;2022-11-15T06:50:21;9.80;99.90
47857;DHT22;33618;49.972;8.242;2022-11-15T06:52:48;9.80;99.90
47857;DHT22;33618;49.972;8.242;2022-11-15T06:55:15;9.80;99.90
47857;DHT22;33618;49.972;8.242;2022-11-15T06:57:50;9.90;99.90
47857;DHT22;33618;49.972;8.242;2022-11-15T07:00:20;10.10;99.90
47857;DHT22;33618;49.972;8.242;2022-11-15T07:02:47;10.10;99.90
47857;DHT22;33618;49.972;8.242;2022-11-15T07:05:15;10.00;99.90
47857;DHT22;33618;49.972;8.242;2022-11-15T07:07:42;10.00;99.90
47857;DHT22;33618;49.972;8.242;2022-11-15T07:10:09;10.00;99.90
47857;DHT22;33618;49.972;8.242;2022-11-15T07:12:36;10.00;99.90
47857;DHT22;33618;49.972;8.242;2022-11-15T07:15:03;9.90;99.90
47857;DHT22;33618;49.972;8.242;2022-11-15T07:17:30;9.90;99.90
47857;DHT22;33618;49.972;8.242;2022-11-15T07:19:57;10.00;99.90
47857;DHT22;33618;49.972;8.242;2022-11-15T07:22:24;10.00;99.90
47857;DHT22;33618;49.972;8.242;2022-11-15T07:24:51;10.00;99.90
47857;DHT22;33618;49.972;8.242;2022-11-15T07:27:18;10.00;99.90
47857;DHT22;33618;49.972;8.242;2022-11-15T07:29:45;10.00;99.90
47857;DHT22;33618;49.972;8.242;2022-11-15T07:32:12;10.10;99.90
47857;DHT22;33618;49.972;8.242;2022-11-15T07:34:39;10.10;99.90
47857;DHT22;33618;49.972;8.242;2022-11-15T07:37:06;10.20;99.90
47857;DHT22;33618;49.972;8.242;2022-11-15T07:39:32;10.20;99.90
47857;DHT22;33618;49.972;8.242;2022-11-15T07:42:00;10.20;99.90
47857;DHT22;33618;49.972;8.242;2022-11-15T07:44:45;10.30;99.90
47857;DHT22;33618;49.972;8.242;2022-11-15T07:47:13;10.30;99.90
47857;DHT22;33618;49.972;8.242;2022-11-15T07:49:40;10.30;99.90
47857;DHT22;33618;49.972;8.242;2022-11-15T07:52:07;10.40;99.90
47857;DHT22;33618;49.972;8.242;2022-11-15T07:54:34;10.40;99.90
47857;DHT22;33618;49.972;8.242;2022-11-15T07:57:00;10.30;99.90
47857;DHT22;33618;49.972;8.242;2022-11-15T07:59:33;10.30;99.90
47857;DHT22;33618;49.972;8.242;2022-11-15T08:02:01;10.40;99.90
47857;DHT22;33618;49.972;8.242;2022-11-15T08:04:28;10.40;99.90
47857;DHT22;33618;49.972;8.242;2022-11-15T08:06:55;10.50;99.90
47857;DHT22;33618;49.972;8.242;2022-11-15T08:09:23;10.50;99.90
47857;DHT22;33618;49.972;8.242;2022-11-15T08:11:50;10.60;99.90
47857;DHT22;33618;49.972;8.242;2022-11-15T08:14:17;10.60;99.90
47857;DHT22;33618;49.972;8.242;2022-11-15T08:16:44;10.60;99.90
47857;DHT22;33618;49.972;8.242;2022-11-15T08:19:11;10.70;99.90
47857;DHT22;33618;49.972;8.242;2022-11-15T08:21:38;10.70;99.90
47857;DHT22;33618;49.972;8.242;2022-11-15T08:24:05;10.80;99.90
47857;DHT22;33618;49.972;8.242;2022-11-15T08:26:32;10.80;99.90
47857;DHT22;33618;49.972;8.242;2022-11-15T08:28:59;10.80;99.90
47857;DHT22;33618;49.972;8.242;2022-11-15T08:31:25;10.90;99.90
47857;DHT22;33618;49.972;8.242;2022-11-15T08:33:52;10.90;99.90
47857;DHT22;33618;49.972;8.242;2022-11-15T08:36:19;11.10;99.90
47857;DHT22;33618;49.972;8.242;2022-11-15T08:38:46;11.10;99.90
47857;DHT22;33618;49.972;8.242;2022-11-15T08:41:21;11.20;99.90
47857;DHT22;33618;49.972;8.242;2022-11-15T08:43:51;11.30;99.90
47857;DHT22;33618;49.972;8.242;2022-11-15T08:46:18;11.30;99.90
47857;DHT22;33618;49.972;8.242;2022-11-15T08:48:45;11.40;99.90
47857;DHT22;33618;49.972;8.242;2022-11-15T08:51:12;11.40;99.90
47857;DHT22;33618;49.972;8.242;2022-11-15T08:53:39;11.40;99.90
47857;DHT22;33618;49.972;8.242;2022-11-15T08:56:10;11.40;99.90
47857;DHT22;33618;49.972;8.242;2022-11-15T08:58:37;11.50;99.90
47857;DHT22;33618;49.972;8.242;2022-11-15T09:01:05;11.60;99.90
47857;DHT22;33618;49.972;8.242;2022-11-15T09:03:32;11.50;99.90
47857;DHT22;33618;49.972;8.242;2022-11-15T09:06:00;11.50;99.90
47857;DHT22;33618;49.972;8.242;2022-11-15T09:08:30;11.40;99.90
47857;DHT22;33618;49.972;8.242;2022-11-15T09:11:17;11.50;99.90
47857;DHT22;33618;49.972;8.242;2022-11-15T09:13:46;11.50;99.90
47857;DHT22;33618;49.972;8.242;2022-11-15T09:16:14;11.60;99.90
47857;DHT22;33618;49.972;8.242;2022-11-15T09:18:41;11.70;99.90
47857;DHT22;33618;49.972;8.242;2022-11-15T09:21:09;11.70;99.90
47857;DHT22;33618;49.972;8.242;2022-11-15T09:23:36;11.80;99.90
47857;DHT22;33618;49.972;8.242;2022-11-15T09:26:04;11.90;99.90
47857;DHT22;33618;49.972;8.242;2022-11-15T09:28:32;12.00;99.90
47857;DHT22;33618;49.972;8.242;2022-11-15T09:31:03;12.00;99.90
47857;DHT22;33618;49.972;8.242;2022-11-15T09:33:30;12.20;99.90
47857;DHT22;33618;49.972;8.242;2022-11-15T09:36:06;12.30;99.90
47857;DHT22;33618;49.972;8.242;2022-11-15T09:38:34;12.40;99.90
47857;DHT22;33618;49.972;8.242;2022-11-15T09:47:28;12.60;99.90
47857;DHT22;33618;49.972;8.242;2022-11-15T09:49:58;12.60;99.90
47857;DHT22;33618;49.972;8.242;2022-11-15T09:52:26;12.70;99.90
47857;DHT22;33618;49.972;8.242;2022-11-15T09:54:54;12.70;99.90
47857;DHT22;33618;49.972;8.242;2022-11-15T09:57:36;12.80;99.90
47857;DHT22;33618;49.972;8.242;2022-11-15T10:00:18;12.80;99.90
47857;DHT22;33618;49.972;8.242;2022-11-15T10:03:14;12.80;99.90
47857;DHT22;33618;49.972;8.242;2022-11-15T10:05:45;12.70;99.90
47857;DHT22;33618;49.972;8.242;2022-11-15T10:11:07;12.70;99.90
47857;DHT22;33618;49.972;8.242;2022-11-15T10:13:58;12.70;99.90
47857;DHT22;33618;49.972;8.242;2022-11-15T10:19:50;12.90;99.90
47857;DHT22;33618;49.972;8.242;2022-11-15T10:25:21;13.00;99.90
47857;DHT22;33618;49.972;8.242;2022-11-15T10:30:23;13.20;99.90
47857;DHT22;33618;49.972;8.242;2022-11-15T10:32:50;13.20;99.90
47857;DHT22;33618;49.972;8.242;2022-11-15T10:35:24;13.20;99.90
47857;DHT22;33618;49.972;8.242;2022-11-15T10:37:51;13.20;99.90
47857;DHT22;33618;49.972;8.242;2022-11-15T10:40:22;13.30;99.90
47857;DHT22;33618;49.972;8.242;2022-11-15T10:45:32;13.40;99.90
47857;DHT22;33618;49.972;8.242;2022-11-15T10:50:40;13.40;99.90
47857;DHT22;33618;49.972;8.242;2022-11-15T10:53:27;13.40;99.90
47857;DHT22;33618;49.972;8.242;2022-11-15T10:56:05;13.50;99.90
47857;DHT22;33618;49.972;8.242;2022-11-15T10:58:37;13.50;99.90
47857;DHT22;33618;49.972;8.242;2022-11-15T11:01:17;13.50;99.90
47857;DHT22;33618;49.972;8.242;2022-11-15T11:03:57;13.50;99.90
47857;DHT22;33618;49.972;8.242;2022-11-15T11:06:25;13.40;99.90
47857;DHT22;33618;49.972;8.242;2022-11-15T11:09:05;13.30;99.90
47857;DHT22;33618;49.972;8.242;2022-11-15T11:11:49;13.40;99.90
47857;DHT22;33618;49.972;8.242;2022-11-15T11:14:29;13.50;99.90
47857;DHT22;33618;49.972;8.242;2022-11-15T11:17:05;13.60;99.90
47857;DHT22;33618;49.972;8.242;2022-11-15T11:22:32;13.70;99.90
47857;DHT22;33618;49.972;8.242;2022-11-15T11:30:21;13.60;99.90
47857;DHT22;33618;49.972;8.242;2022-11-15T11:45:58;13.40;99.90
47857;DHT22;33618;49.972;8.242;2022-11-15T11:48:48;13.60;99.90
47857;DHT22;33618;49.972;8.242;2022-11-15T11:51:23;13.70;99.90
47857;DHT22;33618;49.972;8.242;2022-11-15T11:53:57;13.70;99.90
47857;DHT22;33618;49.972;8.242;2022-11-15T11:56:37;13.80;99.90
47857;DHT22;33618;49.972;8.242;2022-11-15T12:05:03;13.80;99.90
47857;DHT22;33618;49.972;8.242;2022-11-15T12:07:32;13.80;99.90
47857;DHT22;33618;49.972;8.242;2022-11-15T12:10:23;13.90;99.90
47857;DHT22;33618;49.972;8.242;2022-11-15T12:12:58;13.90;99.90
47857;DHT22;33618;49.972;8.242;2022-11-15T12:15:55;13.90;99.90
47857;DHT22;33618;49.972;8.242;2022-11-15T12:18:19;13.90;99.90
47857;DHT22;33618;49.972;8.242;2022-11-15T12:21:34;13.80;99.90
47857;DHT22;33618;49.972;8.242;2022-11-15T12:24:12;13.80;99.90
47857;DHT22;33618;49.972;8.242;2022-11-15T12:26:50;13.90;99.90
47857;DHT22;33618;49.972;8.242;2022-11-15T12:29:33;13.90;99.90
47857;DHT22;33618;49.972;8.242;2022-11-15T12:32:02;13.90;99.90
47857;DHT22;33618;49.972;8.242;2022-11-15T12:34:39;13.90;99.90
47857;DHT22;33618;49.972;8.242;2022-11-15T12:40:22;13.90;99.90
47857;DHT22;33618;49.972;8.242;2022-11-15T12:45:37;13.90;99.90
47857;DHT22;33618;49.972;8.242;2022-11-15T13:06:48;13.90;99.90
47857;DHT22;33618;49.972;8.242;2022-11-15T13:15:00;13.80;99.90
47857;DHT22;33618;49.972;8.242;2022-11-15T13:22:58;13.60;99.90
47857;DHT22;33618;49.972;8.242;2022-11-15T13:30:54;13.60;99.90
47857;DHT22;33618;49.972;8.242;2022-11-15T13:36:05;13.50;99.90
47857;DHT22;33618;49.972;8.242;2022-11-15T13:38:38;13.40;99.90
47857;DHT22;33618;49.972;8.242;2022-11-15T13:41:32;13.30;99.90
47857;DHT22;33618;49.972;8.242;2022-11-15T13:44:00;13.30;99.90
47857;DHT22;33618;49.972;8.242;2022-11-15T13:46:32;13.20;99.90
47857;DHT22;33618;49.972;8.242;2022-11-15T13:49:07;13.20;99.90
47857;DHT22;33618;49.972;8.242;2022-11-15T13:51:52;13.20;99.90
47857;DHT22;33618;49.972;8.242;2022-11-15T13:54:29;13.20;99.90
47857;DHT22;33618;49.972;8.242;2022-11-15T13:59:37;13.20;99.90
47857;DHT22;33618;49.972;8.242;2022-11-15T14:02:17;13.10;99.90
47857;DHT22;33618;49.972;8.242;2022-11-15T14:04:53;13.10;99.90
47857;DHT22;33618;49.972;8.242;2022-11-15T14:07:24;13.10;99.90
47857;DHT22;33618;49.972;8.242;2022-11-15T14:09:51;13.10;99.90
47857;DHT22;33618;49.972;8.242;2022-11-15T14:12:34;13.00;99.90
47857;DHT22;33618;49.972;8.242;2022-11-15T14:17:51;13.00;99.90
47857;DHT22;33618;49.972;8.242;2022-11-15T14:20:34;13.00;99.90
47857;DHT22;33618;49.972;8.242;2022-11-15T14:23:04;13.10;99.90
47857;DHT22;33618;49.972;8.242;2022-11-15T14:25:34;13.00;99.90
47857;DHT22;33618;49.972;8.242;2022-11-15T14:28:28;13.00;99.90
47857;DHT22;33618;49.972;8.242;2022-11-15T14:30:58;13.00;99.90
47857;DHT22;33618;49.972;8.242;2022-11-15T14:33:34;13.00;99.90
47857;DHT22;33618;49.972;8.242;2022-11-15T14:36:15;13.00;99.90
47857;DHT22;33618;49.972;8.242;2022-11-15T14:38:43;13.00;99.90
47857;DHT22;33618;49.972;8.242;2022-11-15T14:43:42;13.00;99.90
47857;DHT22;33618;49.972;8.242;2022-11-15T14:46:09;12.90;99.90
47857;DHT22;33618;49.972;8.242;2022-11-15T14:48:36;12.90;99.90
47857;DHT22;33618;49.972;8.242;2022-11-15T14:51:03;12.90;99.90
47857;DHT22;33618;49.972;8.242;2022-11-15T14:53:30;12.90;99.90
47857;DHT22;33618;49.972;8.242;2022-11-15T14:55:56;12.80;99.90
47857;DHT22;33618;49.972;8.242;2022-11-15T14:58:23;12.80;99.90
47857;DHT22;33618;49.972;8.242;2022-11-15T15:00:50;12.80;99.90
47857;DHT22;33618;49.972;8.242;2022-11-15T15:03:17;12.80;99.90
47857;DHT22;33618;49.972;8.242;2022-11-15T15:05:44;12.80;99.90
47857;DHT22;33618;49.972;8.242;2022-11-15T15:08:11;12.80;99.90
47857;DHT22;33618;49.972;8.242;2022-11-15T15:10:43;12.70;99.90
47857;DHT22;33618;49.972;8.242;2022-11-15T15:13:18;12.70;99.90
47857;DHT22;33618;49.972;8.242;2022-11-15T15:15:46;12.60;99.90
47857;DHT22;33618;49.972;8.242;2022-11-15T15:18:13;12.60;99.90
47857;DHT22;33618;49.972;8.242;2022-11-15T15:20:41;12.50;99.90
47857;DHT22;33618;49.972;8.242;2022-11-15T15:23:15;12.50;99.90
47857;DHT22;33618;49.972;8.242;2022-11-15T15:25:43;12.50;99.90
47857;DHT22;33618;49.972;8.242;2022-11-15T15:28:10;12.40;99.90
47857;DHT22;33618;49.972;8.242;2022-11-15T15:30:38;12.40;99.90
47857;DHT22;33618;49.972;8.242;2022-11-15T15:33:04;12.40;99.90
47857;DHT22;33618;49.972;8.242;2022-11-15T15:35:34;12.40;99.90
47857;DHT22;33618;49.972;8.242;2022-11-15T15:38:01;12.40;99.90
47857;DHT22;33618;49.972;8.242;2022-11-15T15:40:33;12.40;99.90
47857;DHT22;33618;49.972;8.242;2022-11-15T15:43:00;12.40;99.90
47857;DHT22;33618;49.972;8.242;2022-11-15T15:45:27;12.30;99.90
47857;DHT22;33618;49.972;8.242;2022-11-15T15:47:55;12.30;99.90
47857;DHT22;33618;49.972;8.242;2022-11-15T15:50:44;12.20;99.90
47857;DHT22;33618;49.972;8.242;2022-11-15T15:53:12;12.20;99.90
47857;DHT22;33618;49.972;8.242;2022-11-15T15:55:39;12.10;99.90
47857;DHT22;33618;49.972;8.242;2022-11-15T15:58:07;12.10;99.90
47857;DHT22;33618;49.972;8.242;2022-11-15T16:00:39;12.10;99.90
47857;DHT22;33618;49.972;8.242;2022-11-15T16:03:06;12.10;99.90
47857;DHT22;33618;49.972;8.242;2022-11-15T16:05:34;12.10;99.90
47857;DHT22;33618;49.972;8.242;2022-11-15T16:08:02;12.10;99.90
47857;DHT22;33618;49.972;8.242;2022-11-15T16:10:31;12.10;99.90
47857;DHT22;33618;49.972;8.242;2022-11-15T16:12:58;12.10;99.90
47857;DHT22;33618;49.972;8.242;2022-11-15T16:15:27;12.10;99.90
47857;DHT22;33618;49.972;8.242;2022-11-15T16:17:58;12.10;99.90
47857;DHT22;33618;49.972;8.242;2022-11-15T16:20:43;12.10;99.90
47857;DHT22;33618;49.972;8.242;2022-11-15T16:23:13;12.10;99.90
47857;DHT22;33618;49.972;8.242;2022-11-15T16:25:46;12.10;99.90
47857;DHT22;33618;49.972;8.242;2022-11-15T16:28:22;12.10;99.90
47857;DHT22;33618;49.972;8.242;2022-11-15T16:30:58;12.10;99.90
47857;DHT22;33618;49.972;8.242;2022-11-15T16:33:26;12.00;99.90
47857;DHT22;33618;49.972;8.242;2022-11-15T16:35:52;12.00;99.90
47857;DHT22;33618;49.972;8.242;2022-11-15T16:38:19;12.00;99.90
47857;DHT22;33618;49.972;8.242;2022-11-15T16:40:47;12.00;99.90
47857;DHT22;33618;49.972;8.242;2022-11-15T16:43:14;12.00;99.90
47857;DHT22;33618;49.972;8.242;2022-11-15T16:45:40;12.00;99.90
47857;DHT22;33618;49.972;8.242;2022-11-15T16:48:25;12.00;99.90
47857;DHT22;33618;49.972;8.242;2022-11-15T16:50:57;12.00;99.90
47857;DHT22;33618;49.972;8.242;2022-11-15T16:53:25;11.90;99.90
47857;DHT22;33618;49.972;8.242;2022-11-15T16:55:53;11.90;99.90
47857;DHT22;33618;49.972;8.242;2022-11-15T16:58:20;11.90;99.90
47857;DHT22;33618;49.972;8.242;2022-11-15T17:00:51;11.90;99.90
47857;DHT22;33618;49.972;8.242;2022-11-15T17:03:19;11.90;99.90
47857;DHT22;33618;49.972;8.242;2022-11-15T17:05:47;11.90;99.90
47857;DHT22;33618;49.972;8.242;2022-11-15T17:08:14;11.90;99.90
47857;DHT22;33618;49.972;8.242;2022-11-15T17:10:41;11.90;99.90
47857;DHT22;33618;49.972;8.242;2022-11-15T17:13:11;11.90;99.90
47857;DHT22;33618;49.972;8.242;2022-11-15T17:15:39;11.90;99.90
47857;DHT22;33618;49.972;8.242;2022-11-15T17:18:05;11.90;99.90
47857;DHT22;33618;49.972;8.242;2022-11-15T17:20:32;11.80;99.90
47857;DHT22;33618;49.972;8.242;2022-11-15T17:23:00;11.80;99.90
47857;DHT22;33618;49.972;8.242;2022-11-15T17:25:27;11.70;99.90
47857;DHT22;33618;49.972;8.242;2022-11-15T17:27:55;11.60;99.90
47857;DHT22;33618;49.972;8.242;2022-11-15T17:30:22;11.50;99.90
47857;DHT22;33618;49.972;8.242;2022-11-15T17:32:48;11.40;99.90
47857;DHT22;33618;49.972;8.242;2022-11-15T17:35:15;11.40;99.90
47857;DHT22;33618;49.972;8.242;2022-11-15T17:37:42;11.30;99.90
47857;DHT22;33618;49.972;8.242;2022-11-15T17:40:10;11.40;99.90
47857;DHT22;33618;49.972;8.242;2022-11-15T17:42:40;11.40;99.90
47857;DHT22;33618;49.972;8.242;2022-11-15T17:45:08;11.40;99.90
47857;DHT22;33618;49.972;8.242;2022-11-15T17:47:36;11.40;99.90
47857;DHT22;33618;49.972;8.242;2022-11-15T17:50:03;11.40;99.90
47857;DHT22;33618;49.972;8.242;2022-11-15T17:52:30;11.40;99.90
47857;DHT22;33618;49.972;8.242;2022-11-15T17:54:57;11.50;99.90
47857;DHT22;33618;49.972;8.242;2022-11-15T17:57:24;11.50;99.90
47857;DHT22;33618;49.972;8.242;2022-11-15T17:59:51;11.50;99.90
47857;DHT22;33618;49.972;8.242;2022-11-15T18:02:18;11.50;99.90
47857;DHT22;33618;49.972;8.242;2022-11-15T18:04:45;11.60;99.90
47857;DHT22;33618;49.972;8.242;2022-11-15T18:07:12;11.60;99.90
47857;DHT22;33618;49.972;8.242;2022-11-15T18:09:40;11.50;99.90
47857;DHT22;33618;49.972;8.242;2022-11-15T18:12:10;11.60;99.90
47857;DHT22;33618;49.972;8.242;2022-11-15T18:14:37;11.60;99.90